sensor_id;sensor_type;location;lat;lon;timestamp;pressure;altitude;pressure_sealevel;temperature
12007;BMP180;6062;47.294;12.182;2022-08-07T00:01:28;81073.00;;;15.90
12007;BMP180;6062;47.294;12.182;2022-08-07T00:03:53;81078.00;;;16.00
12007;BMP180;6062;47.294;12.182;2022-08-07T00:06:19;81086.00;;;16.00
12007;BMP180;6062;47.294;12.182;2022-08-07T00:08:45;81077.00;;;16.00
12007;BMP180;6062;47.294;12.182;2022-08-07T00:11:12;81076.00;;;16.00
12007;BMP180;6062;47.294;12.182;2022-08-07T00:13:38;81072.00;;;16.00
12007;BMP180;6062;47.294;12.182;2022-08-07T00:16:05;81060.00;;;16.00
12007;BMP180;6062;47.294;12.182;2022-08-07T00:18:32;81059.00;;;16.00
12007;BMP180;6062;47.294;12.182;2022-08-07T00:21:01;81061.00;;;15.90
12007;BMP180;6062;47.294;12.182;2022-08-07T00:23:29;81053.00;;;15.90
12007;BMP180;6062;47.294;12.182;2022-08-07T00:25:57;81050.00;;;15.80
12007;BMP180;6062;47.294;12.182;2022-08-07T00:28:22;81057.00;;;15.70
12007;BMP180;6062;47.294;12.182;2022-08-07T00:30:49;81061.00;;;15.60
12007;BMP180;6062;47.294;12.182;2022-08-07T00:33:15;81050.00;;;15.60
12007;BMP180;6062;47.294;12.182;2022-08-07T00:35:40;81052.00;;;15.50
12007;BMP180;6062;47.294;12.182;2022-08-07T00:38:06;81047.00;;;15.60
12007;BMP180;6062;47.294;12.182;2022-08-07T00:40:32;81053.00;;;15.60
12007;BMP180;6062;47.294;12.182;2022-08-07T00:42:58;81050.00;;;15.50
12007;BMP180;6062;47.294;12.182;2022-08-07T00:45:23;81052.00;;;15.50
12007;BMP180;6062;47.294;12.182;2022-08-07T00:47:50;81044.00;;;15.40
12007;BMP180;6062;47.294;12.182;2022-08-07T00:50:16;81040.00;;;15.40
12007;BMP180;6062;47.294;12.182;2022-08-07T00:52:43;81032.00;;;15.40
12007;BMP180;6062;47.294;12.182;2022-08-07T00:55:09;81035.00;;;15.40
12007;BMP180;6062;47.294;12.182;2022-08-07T00:57:35;81031.00;;;15.30
12007;BMP180;6062;47.294;12.182;2022-08-07T01:00:04;81032.00;;;15.40
12007;BMP180;6062;47.294;12.182;2022-08-07T01:02:32;81025.00;;;15.40
12007;BMP180;6062;47.294;12.182;2022-08-07T01:04:59;81018.00;;;15.40
12007;BMP180;6062;47.294;12.182;2022-08-07T01:07:27;81028.00;;;15.50
12007;BMP180;6062;47.294;12.182;2022-08-07T01:09:53;81018.00;;;15.50
12007;BMP180;6062;47.294;12.182;2022-08-07T01:12:19;81015.00;;;15.60
12007;BMP180;6062;47.294;12.182;2022-08-07T01:14:45;81025.00;;;15.60
12007;BMP180;6062;47.294;12.182;2022-08-07T01:17:11;81027.00;;;15.70
12007;BMP180;6062;47.294;12.182;2022-08-07T01:19:38;81023.00;;;15.70
12007;BMP180;6062;47.294;12.182;2022-08-07T01:22:05;81021.00;;;15.80
12007;BMP180;6062;47.294;12.182;2022-08-07T01:24:31;81023.00;;;15.80
12007;BMP180;6062;47.294;12.182;2022-08-07T01:26:58;81019.00;;;15.80
12007;BMP180;6062;47.294;12.182;2022-08-07T01:29:26;81020.00;;;15.80
12007;BMP180;6062;47.294;12.182;2022-08-07T01:31:53;81027.00;;;15.80
12007;BMP180;6062;47.294;12.182;2022-08-07T01:34:19;81019.00;;;15.80
12007;BMP180;6062;47.294;12.182;2022-08-07T01:36:47;81028.00;;;15.80
12007;BMP180;6062;47.294;12.182;2022-08-07T01:39:14;81021.00;;;15.80
12007;BMP180;6062;47.294;12.182;2022-08-07T01:41:41;81025.00;;;15.90
12007;BMP180;6062;47.294;12.182;2022-08-07T01:44:11;81010.00;;;15.90
12007;BMP180;6062;47.294;12.182;2022-08-07T01:46:39;81020.00;;;15.90
12007;BMP180;6062;47.294;12.182;2022-08-07T01:49:05;81012.00;;;16.00
12007;BMP180;6062;47.294;12.182;2022-08-07T01:51:31;81010.00;;;16.00
12007;BMP180;6062;47.294;12.182;2022-08-07T01:54:02;81003.00;;;16.00
12007;BMP180;6062;47.294;12.182;2022-08-07T01:59:32;81009.00;;;16.00
12007;BMP180;6062;47.294;12.182;2022-08-07T02:02:06;81006.00;;;16.00
12007;BMP180;6062;47.294;12.182;2022-08-07T02:04:55;80998.00;;;15.90
12007;BMP180;6062;47.294;12.182;2022-08-07T02:07:29;81005.00;;;15.80
12007;BMP180;6062;47.294;12.182;2022-08-07T02:09:59;81013.00;;;15.70
12007;BMP180;6062;47.294;12.182;2022-08-07T02:12:29;81007.00;;;15.60
12007;BMP180;6062;47.294;12.182;2022-08-07T02:14:59;81005.00;;;15.50
12007;BMP180;6062;47.294;12.182;2022-08-07T02:17:26;81000.00;;;15.40
12007;BMP180;6062;47.294;12.182;2022-08-07T02:19:55;80995.00;;;15.30
12007;BMP180;6062;47.294;12.182;2022-08-07T02:22:24;80995.00;;;15.30
12007;BMP180;6062;47.294;12.182;2022-08-07T02:24:53;80996.00;;;15.30
12007;BMP180;6062;47.294;12.182;2022-08-07T02:27:23;80992.00;;;15.30
12007;BMP180;6062;47.294;12.182;2022-08-07T02:29:51;80985.00;;;15.30
12007;BMP180;6062;47.294;12.182;2022-08-07T02:32:19;80991.00;;;15.40
12007;BMP180;6062;47.294;12.182;2022-08-07T02:34:47;80984.00;;;15.40
12007;BMP180;6062;47.294;12.182;2022-08-07T02:37:15;80989.00;;;15.40
12007;BMP180;6062;47.294;12.182;2022-08-07T02:39:45;80991.00;;;15.50
12007;BMP180;6062;47.294;12.182;2022-08-07T02:42:13;80984.00;;;15.50
12007;BMP180;6062;47.294;12.182;2022-08-07T02:44:43;80985.00;;;15.50
12007;BMP180;6062;47.294;12.182;2022-08-07T02:47:10;80985.00;;;15.60
12007;BMP180;6062;47.294;12.182;2022-08-07T02:49:36;80980.00;;;15.60
12007;BMP180;6062;47.294;12.182;2022-08-07T02:52:07;80980.00;;;15.60
12007;BMP180;6062;47.294;12.182;2022-08-07T02:54:39;80985.00;;;15.70
12007;BMP180;6062;47.294;12.182;2022-08-07T02:57:11;80983.00;;;15.70
12007;BMP180;6062;47.294;12.182;2022-08-07T02:59:43;80986.00;;;15.70
12007;BMP180;6062;47.294;12.182;2022-08-07T03:02:14;80987.00;;;15.80
12007;BMP180;6062;47.294;12.182;2022-08-07T03:04:43;80984.00;;;15.80
12007;BMP180;6062;47.294;12.182;2022-08-07T03:07:10;80988.00;;;15.80
12007;BMP180;6062;47.294;12.182;2022-08-07T03:09:37;80987.00;;;15.90
12007;BMP180;6062;47.294;12.182;2022-08-07T03:12:03;80984.00;;;15.90
12007;BMP180;6062;47.294;12.182;2022-08-07T03:14:31;80980.00;;;15.90
12007;BMP180;6062;47.294;12.182;2022-08-07T03:16:58;80988.00;;;15.90
12007;BMP180;6062;47.294;12.182;2022-08-07T03:19:24;80982.00;;;15.90
12007;BMP180;6062;47.294;12.182;2022-08-07T03:21:51;80979.00;;;15.90
12007;BMP180;6062;47.294;12.182;2022-08-07T03:24:17;80971.00;;;15.80
12007;BMP180;6062;47.294;12.182;2022-08-07T03:26:45;80969.00;;;15.70
12007;BMP180;6062;47.294;12.182;2022-08-07T03:29:16;80972.00;;;15.70
12007;BMP180;6062;47.294;12.182;2022-08-07T03:31:44;80980.00;;;15.70
12007;BMP180;6062;47.294;12.182;2022-08-07T03:34:13;80978.00;;;15.80
12007;BMP180;6062;47.294;12.182;2022-08-07T03:36:41;80982.00;;;15.80
12007;BMP180;6062;47.294;12.182;2022-08-07T03:39:10;80978.00;;;15.80
12007;BMP180;6062;47.294;12.182;2022-08-07T03:41:38;80974.00;;;15.80
12007;BMP180;6062;47.294;12.182;2022-08-07T03:44:05;80975.00;;;15.70
12007;BMP180;6062;47.294;12.182;2022-08-07T03:46:31;80982.00;;;15.60
12007;BMP180;6062;47.294;12.182;2022-08-07T03:48:58;80977.00;;;15.60
12007;BMP180;6062;47.294;12.182;2022-08-07T03:51:26;80983.00;;;15.50
12007;BMP180;6062;47.294;12.182;2022-08-07T03:53:52;80979.00;;;15.40
12007;BMP180;6062;47.294;12.182;2022-08-07T03:56:20;80980.00;;;15.40
12007;BMP180;6062;47.294;12.182;2022-08-07T03:58:49;80969.00;;;15.40
12007;BMP180;6062;47.294;12.182;2022-08-07T04:01:15;80969.00;;;15.40
12007;BMP180;6062;47.294;12.182;2022-08-07T04:03:43;80966.00;;;15.40
12007;BMP180;6062;47.294;12.182;2022-08-07T04:06:09;80978.00;;;15.50
12007;BMP180;6062;47.294;12.182;2022-08-07T04:08:38;80972.00;;;15.50
12007;BMP180;6062;47.294;12.182;2022-08-07T04:11:06;80971.00;;;15.50
12007;BMP180;6062;47.294;12.182;2022-08-07T04:13:33;80975.00;;;15.50
12007;BMP180;6062;47.294;12.182;2022-08-07T04:15:59;80965.00;;;15.50
12007;BMP180;6062;47.294;12.182;2022-08-07T04:18:26;80969.00;;;15.50
12007;BMP180;6062;47.294;12.182;2022-08-07T04:20:51;80980.00;;;15.50
12007;BMP180;6062;47.294;12.182;2022-08-07T04:23:18;80976.00;;;15.40
12007;BMP180;6062;47.294;12.182;2022-08-07T04:25:45;80984.00;;;15.40
12007;BMP180;6062;47.294;12.182;2022-08-07T04:28:12;80975.00;;;15.40
12007;BMP180;6062;47.294;12.182;2022-08-07T04:30:38;80977.00;;;15.40
12007;BMP180;6062;47.294;12.182;2022-08-07T04:33:09;80992.00;;;15.50
12007;BMP180;6062;47.294;12.182;2022-08-07T04:35:37;80981.00;;;15.50
12007;BMP180;6062;47.294;12.182;2022-08-07T04:38:07;80984.00;;;15.50
12007;BMP180;6062;47.294;12.182;2022-08-07T04:40:38;80985.00;;;15.50
12007;BMP180;6062;47.294;12.182;2022-08-07T04:43:04;80977.00;;;15.60
12007;BMP180;6062;47.294;12.182;2022-08-07T04:45:52;80980.00;;;15.60
12007;BMP180;6062;47.294;12.182;2022-08-07T04:51:58;80985.00;;;15.60
12007;BMP180;6062;47.294;12.182;2022-08-07T04:55:14;80984.00;;;15.60
12007;BMP180;6062;47.294;12.182;2022-08-07T05:01:19;80985.00;;;15.50
12007;BMP180;6062;47.294;12.182;2022-08-07T05:04:01;80978.00;;;15.40
12007;BMP180;6062;47.294;12.182;2022-08-07T05:06:35;80980.00;;;15.40
12007;BMP180;6062;47.294;12.182;2022-08-07T05:12:04;80981.00;;;15.40
12007;BMP180;6062;47.294;12.182;2022-08-07T05:14:42;80982.00;;;15.40
12007;BMP180;6062;47.294;12.182;2022-08-07T05:17:12;80977.00;;;15.40
12007;BMP180;6062;47.294;12.182;2022-08-07T05:19:43;80985.00;;;15.40
12007;BMP180;6062;47.294;12.182;2022-08-07T05:22:13;80983.00;;;15.30
12007;BMP180;6062;47.294;12.182;2022-08-07T05:24:40;80989.00;;;15.30
12007;BMP180;6062;47.294;12.182;2022-08-07T05:27:09;80979.00;;;15.20
12007;BMP180;6062;47.294;12.182;2022-08-07T05:29:40;80983.00;;;15.20
12007;BMP180;6062;47.294;12.182;2022-08-07T05:32:07;80983.00;;;15.20
12007;BMP180;6062;47.294;12.182;2022-08-07T05:34:39;80981.00;;;15.30
12007;BMP180;6062;47.294;12.182;2022-08-07T05:37:05;80986.00;;;15.30
12007;BMP180;6062;47.294;12.182;2022-08-07T05:39:34;80984.00;;;15.30
12007;BMP180;6062;47.294;12.182;2022-08-07T05:42:03;80986.00;;;15.30
12007;BMP180;6062;47.294;12.182;2022-08-07T05:44:33;80981.00;;;15.30
12007;BMP180;6062;47.294;12.182;2022-08-07T05:47:00;80979.00;;;15.40
12007;BMP180;6062;47.294;12.182;2022-08-07T05:49:26;80982.00;;;15.40
12007;BMP180;6062;47.294;12.182;2022-08-07T05:51:52;80985.00;;;15.50
12007;BMP180;6062;47.294;12.182;2022-08-07T05:54:18;80987.00;;;15.70
12007;BMP180;6062;47.294;12.182;2022-08-07T05:56:46;80975.00;;;15.80
12007;BMP180;6062;47.294;12.182;2022-08-07T05:59:18;80983.00;;;16.00
12007;BMP180;6062;47.294;12.182;2022-08-07T06:01:45;80976.00;;;16.10
12007;BMP180;6062;47.294;12.182;2022-08-07T06:04:17;80982.00;;;16.20
12007;BMP180;6062;47.294;12.182;2022-08-07T06:06:44;80984.00;;;16.30
12007;BMP180;6062;47.294;12.182;2022-08-07T06:09:10;80984.00;;;16.50
12007;BMP180;6062;47.294;12.182;2022-08-07T06:11:37;80987.00;;;16.70
12007;BMP180;6062;47.294;12.182;2022-08-07T06:14:04;80989.00;;;16.90
12007;BMP180;6062;47.294;12.182;2022-08-07T06:16:33;80985.00;;;17.10
12007;BMP180;6062;47.294;12.182;2022-08-07T06:19:00;80991.00;;;17.30
12007;BMP180;6062;47.294;12.182;2022-08-07T06:21:27;80982.00;;;17.40
12007;BMP180;6062;47.294;12.182;2022-08-07T06:23:53;80992.00;;;17.50
12007;BMP180;6062;47.294;12.182;2022-08-07T06:26:20;80987.00;;;17.50
12007;BMP180;6062;47.294;12.182;2022-08-07T06:28:52;80991.00;;;17.60
12007;BMP180;6062;47.294;12.182;2022-08-07T06:31:19;80982.00;;;17.70
12007;BMP180;6062;47.294;12.182;2022-08-07T06:33:46;80984.00;;;17.70
12007;BMP180;6062;47.294;12.182;2022-08-07T06:36:12;80986.00;;;17.80
12007;BMP180;6062;47.294;12.182;2022-08-07T06:38:40;80990.00;;;18.00
12007;BMP180;6062;47.294;12.182;2022-08-07T06:41:11;80994.00;;;18.00
12007;BMP180;6062;47.294;12.182;2022-08-07T06:43:42;80990.00;;;18.00
12007;BMP180;6062;47.294;12.182;2022-08-07T06:46:09;81002.00;;;18.00
12007;BMP180;6062;47.294;12.182;2022-08-07T06:48:35;80998.00;;;17.80
12007;BMP180;6062;47.294;12.182;2022-08-07T06:51:07;80990.00;;;17.80
12007;BMP180;6062;47.294;12.182;2022-08-07T06:53:37;80985.00;;;17.80
12007;BMP180;6062;47.294;12.182;2022-08-07T06:56:06;80993.00;;;17.70
12007;BMP180;6062;47.294;12.182;2022-08-07T06:58:34;80993.00;;;17.70
12007;BMP180;6062;47.294;12.182;2022-08-07T07:01:05;80990.00;;;17.60
12007;BMP180;6062;47.294;12.182;2022-08-07T07:03:32;80985.00;;;17.50
12007;BMP180;6062;47.294;12.182;2022-08-07T07:05:59;80998.00;;;17.60
12007;BMP180;6062;47.294;12.182;2022-08-07T07:08:28;80995.00;;;17.60
12007;BMP180;6062;47.294;12.182;2022-08-07T07:10:55;80995.00;;;17.60
12007;BMP180;6062;47.294;12.182;2022-08-07T07:13:37;80987.00;;;17.70
12007;BMP180;6062;47.294;12.182;2022-08-07T07:16:13;80994.00;;;17.70
12007;BMP180;6062;47.294;12.182;2022-08-07T07:18:49;80991.00;;;17.60
12007;BMP180;6062;47.294;12.182;2022-08-07T07:21:22;80983.00;;;17.50
12007;BMP180;6062;47.294;12.182;2022-08-07T07:23:50;80996.00;;;17.40
12007;BMP180;6062;47.294;12.182;2022-08-07T07:26:19;80988.00;;;17.40
12007;BMP180;6062;47.294;12.182;2022-08-07T07:29:12;80986.00;;;17.40
12007;BMP180;6062;47.294;12.182;2022-08-07T07:31:47;80983.00;;;17.40
12007;BMP180;6062;47.294;12.182;2022-08-07T07:34:19;80979.00;;;17.60
12007;BMP180;6062;47.294;12.182;2022-08-07T07:36:48;80968.00;;;17.80
12007;BMP180;6062;47.294;12.182;2022-08-07T07:39:15;80977.00;;;18.00
12007;BMP180;6062;47.294;12.182;2022-08-07T07:41:46;80979.00;;;18.10
12007;BMP180;6062;47.294;12.182;2022-08-07T07:44:17;80981.00;;;18.10
12007;BMP180;6062;47.294;12.182;2022-08-07T07:46:45;80976.00;;;18.20
12007;BMP180;6062;47.294;12.182;2022-08-07T07:49:16;80972.00;;;18.30
12007;BMP180;6062;47.294;12.182;2022-08-07T07:51:46;80980.00;;;18.40
12007;BMP180;6062;47.294;12.182;2022-08-07T07:54:15;80980.00;;;18.50
12007;BMP180;6062;47.294;12.182;2022-08-07T07:56:43;80980.00;;;18.60
12007;BMP180;6062;47.294;12.182;2022-08-07T07:59:11;80975.00;;;19.00
12007;BMP180;6062;47.294;12.182;2022-08-07T08:01:42;80981.00;;;19.60
12007;BMP180;6062;47.294;12.182;2022-08-07T08:04:11;80977.00;;;20.10
12007;BMP180;6062;47.294;12.182;2022-08-07T08:06:43;80977.00;;;20.50
12007;BMP180;6062;47.294;12.182;2022-08-07T08:09:11;80985.00;;;20.80
12007;BMP180;6062;47.294;12.182;2022-08-07T08:11:39;80980.00;;;21.00
12007;BMP180;6062;47.294;12.182;2022-08-07T08:14:05;80984.00;;;21.30
12007;BMP180;6062;47.294;12.182;2022-08-07T08:16:42;80986.00;;;21.40
12007;BMP180;6062;47.294;12.182;2022-08-07T08:19:14;80983.00;;;21.20
12007;BMP180;6062;47.294;12.182;2022-08-07T08:21:46;80978.00;;;21.00
12007;BMP180;6062;47.294;12.182;2022-08-07T08:24:40;80978.00;;;20.80
12007;BMP180;6062;47.294;12.182;2022-08-07T08:27:30;80976.00;;;20.70
12007;BMP180;6062;47.294;12.182;2022-08-07T08:30:07;80981.00;;;20.80
12007;BMP180;6062;47.294;12.182;2022-08-07T08:32:40;80982.00;;;20.90
12007;BMP180;6062;47.294;12.182;2022-08-07T08:35:16;80983.00;;;21.10
12007;BMP180;6062;47.294;12.182;2022-08-07T08:37:45;80984.00;;;21.60
12007;BMP180;6062;47.294;12.182;2022-08-07T08:40:25;80984.00;;;22.40
12007;BMP180;6062;47.294;12.182;2022-08-07T08:43:02;80979.00;;;23.00
12007;BMP180;6062;47.294;12.182;2022-08-07T08:46:00;80989.00;;;23.10
12007;BMP180;6062;47.294;12.182;2022-08-07T08:51:35;80997.00;;;22.90
12007;BMP180;6062;47.294;12.182;2022-08-07T08:54:22;80988.00;;;22.80
12007;BMP180;6062;47.294;12.182;2022-08-07T08:56:51;80985.00;;;22.70
12007;BMP180;6062;47.294;12.182;2022-08-07T08:59:42;80992.00;;;22.50
12007;BMP180;6062;47.294;12.182;2022-08-07T09:02:16;80986.00;;;22.20
12007;BMP180;6062;47.294;12.182;2022-08-07T09:08:38;80993.00;;;22.40
12007;BMP180;6062;47.294;12.182;2022-08-07T09:11:19;81003.00;;;22.60
12007;BMP180;6062;47.294;12.182;2022-08-07T09:15:03;80997.00;;;22.60
12007;BMP180;6062;47.294;12.182;2022-08-07T09:17:21;80999.00;;;22.50
12007;BMP180;6062;47.294;12.182;2022-08-07T09:28:30;81000.00;;;22.10
12007;BMP180;6062;47.294;12.182;2022-08-07T09:31:15;80989.00;;;21.80
12007;BMP180;6062;47.294;12.182;2022-08-07T09:34:10;80994.00;;;21.50
12007;BMP180;6062;47.294;12.182;2022-08-07T09:37:02;80995.00;;;21.30
12007;BMP180;6062;47.294;12.182;2022-08-07T09:39:47;80998.00;;;21.20
12007;BMP180;6062;47.294;12.182;2022-08-07T09:42:59;80997.00;;;21.00
12007;BMP180;6062;47.294;12.182;2022-08-07T09:49:17;80994.00;;;20.60
12007;BMP180;6062;47.294;12.182;2022-08-07T09:52:20;80997.00;;;20.40
12007;BMP180;6062;47.294;12.182;2022-08-07T09:55:01;80993.00;;;20.20
12007;BMP180;6062;47.294;12.182;2022-08-07T10:07:25;80988.00;;;19.80
12007;BMP180;6062;47.294;12.182;2022-08-07T10:16:28;80986.00;;;19.20
12007;BMP180;6062;47.294;12.182;2022-08-07T10:27:35;80975.00;;;18.40
12007;BMP180;6062;47.294;12.182;2022-08-07T10:30:16;80980.00;;;18.30
12007;BMP180;6062;47.294;12.182;2022-08-07T10:33:16;80975.00;;;18.20
12007;BMP180;6062;47.294;12.182;2022-08-07T10:38:38;80978.00;;;18.20
12007;BMP180;6062;47.294;12.182;2022-08-07T10:44:42;80971.00;;;18.30
12007;BMP180;6062;47.294;12.182;2022-08-07T10:47:30;80968.00;;;18.50
12007;BMP180;6062;47.294;12.182;2022-08-07T10:50:21;80969.00;;;18.60
12007;BMP180;6062;47.294;12.182;2022-08-07T10:53:16;80975.00;;;18.80
12007;BMP180;6062;47.294;12.182;2022-08-07T10:56:21;80972.00;;;18.90
12007;BMP180;6062;47.294;12.182;2022-08-07T10:59:06;80971.00;;;18.90
12007;BMP180;6062;47.294;12.182;2022-08-07T11:01:44;80964.00;;;19.00
12007;BMP180;6062;47.294;12.182;2022-08-07T11:07:29;80968.00;;;19.10
12007;BMP180;6062;47.294;12.182;2022-08-07T11:10:00;80965.00;;;19.10
12007;BMP180;6062;47.294;12.182;2022-08-07T11:12:34;80960.00;;;19.10
12007;BMP180;6062;47.294;12.182;2022-08-07T11:15:13;80967.00;;;19.20
12007;BMP180;6062;47.294;12.182;2022-08-07T11:17:53;80969.00;;;19.20
12007;BMP180;6062;47.294;12.182;2022-08-07T11:24:01;80969.00;;;19.10
12007;BMP180;6062;47.294;12.182;2022-08-07T11:29:26;80966.00;;;19.30
12007;BMP180;6062;47.294;12.182;2022-08-07T11:32:06;80962.00;;;19.40
12007;BMP180;6062;47.294;12.182;2022-08-07T11:34:40;80961.00;;;19.50
12007;BMP180;6062;47.294;12.182;2022-08-07T11:40:52;80963.00;;;19.90
12007;BMP180;6062;47.294;12.182;2022-08-07T11:47:15;80950.00;;;19.90
12007;BMP180;6062;47.294;12.182;2022-08-07T11:52:54;80958.00;;;19.60
12007;BMP180;6062;47.294;12.182;2022-08-07T12:01:59;80956.00;;;19.30
12007;BMP180;6062;47.294;12.182;2022-08-07T12:04:55;80954.00;;;19.20
12007;BMP180;6062;47.294;12.182;2022-08-07T12:08:01;80950.00;;;19.20
12007;BMP180;6062;47.294;12.182;2022-08-07T12:10:39;80954.00;;;19.20
12007;BMP180;6062;47.294;12.182;2022-08-07T12:16:14;80946.00;;;19.30
12007;BMP180;6062;47.294;12.182;2022-08-07T12:19:30;80950.00;;;19.20
12007;BMP180;6062;47.294;12.182;2022-08-07T12:22:09;80947.00;;;19.10
12007;BMP180;6062;47.294;12.182;2022-08-07T12:24:55;80946.00;;;18.90
12007;BMP180;6062;47.294;12.182;2022-08-07T12:27:51;80948.00;;;18.90
12007;BMP180;6062;47.294;12.182;2022-08-07T12:30:25;80952.00;;;19.00
12007;BMP180;6062;47.294;12.182;2022-08-07T12:33:14;80940.00;;;19.30
12007;BMP180;6062;47.294;12.182;2022-08-07T12:35:46;80949.00;;;19.70
12007;BMP180;6062;47.294;12.182;2022-08-07T12:38:14;80950.00;;;20.00
12007;BMP180;6062;47.294;12.182;2022-08-07T12:40:43;80951.00;;;20.40
12007;BMP180;6062;47.294;12.182;2022-08-07T12:43:11;80954.00;;;20.50
12007;BMP180;6062;47.294;12.182;2022-08-07T12:48:59;80948.00;;;20.30
12007;BMP180;6062;47.294;12.182;2022-08-07T12:51:42;80945.00;;;20.00
12007;BMP180;6062;47.294;12.182;2022-08-07T12:54:24;80951.00;;;19.80
12007;BMP180;6062;47.294;12.182;2022-08-07T12:56:55;80948.00;;;19.80
12007;BMP180;6062;47.294;12.182;2022-08-07T12:59:30;80954.00;;;19.90
12007;BMP180;6062;47.294;12.182;2022-08-07T13:08:58;80949.00;;;19.80
12007;BMP180;6062;47.294;12.182;2022-08-07T13:11:55;80942.00;;;19.70
12007;BMP180;6062;47.294;12.182;2022-08-07T13:14:50;80943.00;;;19.40
12007;BMP180;6062;47.294;12.182;2022-08-07T13:17:34;80942.00;;;19.00
12007;BMP180;6062;47.294;12.182;2022-08-07T13:20:14;80938.00;;;18.60
12007;BMP180;6062;47.294;12.182;2022-08-07T13:22:57;80947.00;;;18.30
12007;BMP180;6062;47.294;12.182;2022-08-07T13:25:35;80939.00;;;18.10
12007;BMP180;6062;47.294;12.182;2022-08-07T13:28:10;80946.00;;;18.00
12007;BMP180;6062;47.294;12.182;2022-08-07T13:30:42;80947.00;;;17.90
12007;BMP180;6062;47.294;12.182;2022-08-07T13:35:58;80949.00;;;17.90
12007;BMP180;6062;47.294;12.182;2022-08-07T13:38:48;80947.00;;;18.00
12007;BMP180;6062;47.294;12.182;2022-08-07T13:41:33;80949.00;;;18.20
12007;BMP180;6062;47.294;12.182;2022-08-07T13:44:02;80955.00;;;18.40
12007;BMP180;6062;47.294;12.182;2022-08-07T13:46:38;80936.00;;;18.50
12007;BMP180;6062;47.294;12.182;2022-08-07T13:49:06;80944.00;;;18.60
12007;BMP180;6062;47.294;12.182;2022-08-07T13:51:36;80946.00;;;18.70
12007;BMP180;6062;47.294;12.182;2022-08-07T13:54:10;80938.00;;;18.60
12007;BMP180;6062;47.294;12.182;2022-08-07T13:56:39;80930.00;;;18.60
12007;BMP180;6062;47.294;12.182;2022-08-07T13:59:19;80944.00;;;18.50
12007;BMP180;6062;47.294;12.182;2022-08-07T14:01:55;80939.00;;;18.40
12007;BMP180;6062;47.294;12.182;2022-08-07T14:04:30;80936.00;;;18.30
12007;BMP180;6062;47.294;12.182;2022-08-07T14:06:58;80932.00;;;18.30
12007;BMP180;6062;47.294;12.182;2022-08-07T14:09:30;80933.00;;;18.20
12007;BMP180;6062;47.294;12.182;2022-08-07T14:12:02;80929.00;;;18.30
12007;BMP180;6062;47.294;12.182;2022-08-07T14:14:45;80926.00;;;18.40
12007;BMP180;6062;47.294;12.182;2022-08-07T14:17:14;80931.00;;;18.50
12007;BMP180;6062;47.294;12.182;2022-08-07T14:19:54;80930.00;;;18.50
12007;BMP180;6062;47.294;12.182;2022-08-07T14:22:25;80932.00;;;18.40
12007;BMP180;6062;47.294;12.182;2022-08-07T14:24:59;80926.00;;;18.30
12007;BMP180;6062;47.294;12.182;2022-08-07T14:27:37;80928.00;;;18.20
12007;BMP180;6062;47.294;12.182;2022-08-07T14:30:09;80930.00;;;18.10
12007;BMP180;6062;47.294;12.182;2022-08-07T14:32:44;80936.00;;;18.00
12007;BMP180;6062;47.294;12.182;2022-08-07T14:35:24;80937.00;;;17.90
12007;BMP180;6062;47.294;12.182;2022-08-07T14:37:52;80925.00;;;18.00
12007;BMP180;6062;47.294;12.182;2022-08-07T14:40:22;80927.00;;;18.00
12007;BMP180;6062;47.294;12.182;2022-08-07T14:43:05;80925.00;;;18.10
12007;BMP180;6062;47.294;12.182;2022-08-07T14:45:50;80928.00;;;18.30
12007;BMP180;6062;47.294;12.182;2022-08-07T14:48:24;80937.00;;;18.30
12007;BMP180;6062;47.294;12.182;2022-08-07T14:50:54;80929.00;;;18.20
12007;BMP180;6062;47.294;12.182;2022-08-07T14:53:23;80927.00;;;18.20
12007;BMP180;6062;47.294;12.182;2022-08-07T14:55:52;80928.00;;;18.10
12007;BMP180;6062;47.294;12.182;2022-08-07T14:58:24;80938.00;;;17.90
12007;BMP180;6062;47.294;12.182;2022-08-07T15:00:53;80935.00;;;17.80
12007;BMP180;6062;47.294;12.182;2022-08-07T15:03:25;80939.00;;;17.60
12007;BMP180;6062;47.294;12.182;2022-08-07T15:05:53;80935.00;;;17.40
12007;BMP180;6062;47.294;12.182;2022-08-07T15:08:35;80936.00;;;17.20
12007;BMP180;6062;47.294;12.182;2022-08-07T15:11:09;80939.00;;;17.20
12007;BMP180;6062;47.294;12.182;2022-08-07T15:13:55;80931.00;;;17.20
12007;BMP180;6062;47.294;12.182;2022-08-07T15:16:37;80923.00;;;17.20
12007;BMP180;6062;47.294;12.182;2022-08-07T15:19:12;80922.00;;;17.40
12007;BMP180;6062;47.294;12.182;2022-08-07T15:21:48;80920.00;;;17.60
12007;BMP180;6062;47.294;12.182;2022-08-07T15:24:21;80917.00;;;17.70
12007;BMP180;6062;47.294;12.182;2022-08-07T15:27:22;80915.00;;;17.70
12007;BMP180;6062;47.294;12.182;2022-08-07T15:29:52;80923.00;;;17.80
12007;BMP180;6062;47.294;12.182;2022-08-07T15:32:21;80914.00;;;17.80
12007;BMP180;6062;47.294;12.182;2022-08-07T15:34:52;80924.00;;;17.90
12007;BMP180;6062;47.294;12.182;2022-08-07T15:37:24;80926.00;;;17.90
12007;BMP180;6062;47.294;12.182;2022-08-07T15:39:55;80916.00;;;17.80
12007;BMP180;6062;47.294;12.182;2022-08-07T15:45:03;80924.00;;;17.50
12007;BMP180;6062;47.294;12.182;2022-08-07T15:47:35;80920.00;;;17.40
12007;BMP180;6062;47.294;12.182;2022-08-07T15:50:07;80923.00;;;17.30
12007;BMP180;6062;47.294;12.182;2022-08-07T15:52:37;80919.00;;;17.30
12007;BMP180;6062;47.294;12.182;2022-08-07T15:55:09;80920.00;;;17.30
12007;BMP180;6062;47.294;12.182;2022-08-07T15:57:36;80913.00;;;17.20
12007;BMP180;6062;47.294;12.182;2022-08-07T16:00:04;80909.00;;;17.20
12007;BMP180;6062;47.294;12.182;2022-08-07T16:02:41;80912.00;;;17.10
12007;BMP180;6062;47.294;12.182;2022-08-07T16:05:15;80915.00;;;17.00
12007;BMP180;6062;47.294;12.182;2022-08-07T16:07:53;80916.00;;;17.00
12007;BMP180;6062;47.294;12.182;2022-08-07T16:10:26;80911.00;;;16.90
12007;BMP180;6062;47.294;12.182;2022-08-07T16:16:51;80913.00;;;16.70
12007;BMP180;6062;47.294;12.182;2022-08-07T16:22:55;80913.00;;;16.50
12007;BMP180;6062;47.294;12.182;2022-08-07T16:25:52;80907.00;;;16.50
12007;BMP180;6062;47.294;12.182;2022-08-07T16:32:24;80906.00;;;16.50
12007;BMP180;6062;47.294;12.182;2022-08-07T16:34:56;80909.00;;;16.60
12007;BMP180;6062;47.294;12.182;2022-08-07T16:47:31;80911.00;;;16.90
12007;BMP180;6062;47.294;12.182;2022-08-07T16:50:31;80910.00;;;16.90
12007;BMP180;6062;47.294;12.182;2022-08-07T17:05:11;80918.00;;;17.30